sensor_id;sensor_type;location;lat;lon;timestamp;P1;durP1;ratioP1;P2;durP2;ratioP2
25758;SDS011;13604;52.496;13.456;2024-03-07T00:01:12;204.23;;;58.17;;
25758;SDS011;13604;52.496;13.456;2024-03-07T00:03:37;193.38;;;56.33;;
25758;SDS011;13604;52.496;13.456;2024-03-07T00:06:04;176.07;;;54.05;;
25758;SDS011;13604;52.496;13.456;2024-03-07T00:08:29;187.98;;;54.60;;
25758;SDS011;13604;52.496;13.456;2024-03-07T00:10:55;189.93;;;56.20;;
25758;SDS011;13604;52.496;13.456;2024-03-07T00:13:20;195.90;;;54.25;;
25758;SDS011;13604;52.496;13.456;2024-03-07T00:15:46;187.45;;;56.47;;
25758;SDS011;13604;52.496;13.456;2024-03-07T00:18:11;187.38;;;54.97;;
25758;SDS011;13604;52.496;13.456;2024-03-07T00:20:36;172.75;;;51.90;;
25758;SDS011;13604;52.496;13.456;2024-03-07T00:23:02;175.25;;;51.92;;
25758;SDS011;13604;52.496;13.456;2024-03-07T00:25:27;184.10;;;56.50;;
25758;SDS011;13604;52.496;13.456;2024-03-07T00:27:53;184.73;;;51.97;;
25758;SDS011;13604;52.496;13.456;2024-03-07T00:30:19;165.02;;;52.20;;
25758;SDS011;13604;52.496;13.456;2024-03-07T00:32:45;159.57;;;50.65;;
25758;SDS011;13604;52.496;13.456;2024-03-07T00:35:11;166.80;;;48.88;;
25758;SDS011;13604;52.496;13.456;2024-03-07T00:37:36;172.32;;;50.08;;
25758;SDS011;13604;52.496;13.456;2024-03-07T00:40:01;186.35;;;51.90;;
25758;SDS011;13604;52.496;13.456;2024-03-07T00:42:28;158.40;;;51.80;;
25758;SDS011;13604;52.496;13.456;2024-03-07T00:44:53;164.93;;;50.65;;
25758;SDS011;13604;52.496;13.456;2024-03-07T00:47:19;191.05;;;53.22;;
25758;SDS011;13604;52.496;13.456;2024-03-07T00:49:44;182.93;;;51.03;;
25758;SDS011;13604;52.496;13.456;2024-03-07T00:52:11;179.48;;;51.33;;
25758;SDS011;13604;52.496;13.456;2024-03-07T00:54:36;188.07;;;54.60;;
25758;SDS011;13604;52.496;13.456;2024-03-07T00:57:02;162.20;;;50.10;;
25758;SDS011;13604;52.496;13.456;2024-03-07T00:59:27;164.82;;;47.83;;
25758;SDS011;13604;52.496;13.456;2024-03-07T01:01:52;160.98;;;48.25;;
25758;SDS011;13604;52.496;13.456;2024-03-07T01:04:18;157.75;;;48.80;;
25758;SDS011;13604;52.496;13.456;2024-03-07T01:06:44;180.45;;;52.83;;
25758;SDS011;13604;52.496;13.456;2024-03-07T01:09:09;175.07;;;50.65;;
25758;SDS011;13604;52.496;13.456;2024-03-07T01:11:39;182.85;;;51.47;;
25758;SDS011;13604;52.496;13.456;2024-03-07T01:14:07;180.70;;;53.00;;
25758;SDS011;13604;52.496;13.456;2024-03-07T01:16:33;166.98;;;51.95;;
25758;SDS011;13604;52.496;13.456;2024-03-07T01:18:59;175.85;;;51.63;;
25758;SDS011;13604;52.496;13.456;2024-03-07T01:21:24;162.70;;;50.78;;
25758;SDS011;13604;52.496;13.456;2024-03-07T01:23:50;158.75;;;48.80;;
25758;SDS011;13604;52.496;13.456;2024-03-07T01:26:16;186.95;;;50.30;;
25758;SDS011;13604;52.496;13.456;2024-03-07T01:28:41;186.40;;;52.95;;
25758;SDS011;13604;52.496;13.456;2024-03-07T01:31:06;162.13;;;50.20;;
25758;SDS011;13604;52.496;13.456;2024-03-07T01:33:32;165.65;;;51.78;;
25758;SDS011;13604;52.496;13.456;2024-03-07T01:35:57;176.48;;;51.67;;
25758;SDS011;13604;52.496;13.456;2024-03-07T01:38:22;165.93;;;51.13;;
25758;SDS011;13604;52.496;13.456;2024-03-07T01:40:48;153.65;;;48.17;;
25758;SDS011;13604;52.496;13.456;2024-03-07T01:43:13;164.43;;;49.00;;
25758;SDS011;13604;52.496;13.456;2024-03-07T01:45:39;163.43;;;47.95;;
25758;SDS011;13604;52.496;13.456;2024-03-07T01:48:04;162.05;;;49.08;;
25758;SDS011;13604;52.496;13.456;2024-03-07T01:50:30;162.82;;;48.20;;
25758;SDS011;13604;52.496;13.456;2024-03-07T01:52:56;143.38;;;47.30;;
25758;SDS011;13604;52.496;13.456;2024-03-07T01:55:22;161.90;;;46.90;;
25758;SDS011;13604;52.496;13.456;2024-03-07T01:57:48;166.77;;;49.08;;
25758;SDS011;13604;52.496;13.456;2024-03-07T02:00:14;156.23;;;46.95;;
25758;SDS011;13604;52.496;13.456;2024-03-07T02:02:39;163.90;;;46.70;;
25758;SDS011;13604;52.496;13.456;2024-03-07T02:05:05;143.82;;;46.83;;
25758;SDS011;13604;52.496;13.456;2024-03-07T02:07:31;154.00;;;50.10;;
25758;SDS011;13604;52.496;13.456;2024-03-07T02:10:00;143.98;;;48.28;;
25758;SDS011;13604;52.496;13.456;2024-03-07T02:12:29;152.63;;;49.30;;
25758;SDS011;13604;52.496;13.456;2024-03-07T02:14:55;160.77;;;49.22;;
25758;SDS011;13604;52.496;13.456;2024-03-07T02:17:22;151.88;;;48.17;;
25758;SDS011;13604;52.496;13.456;2024-03-07T02:19:47;156.48;;;51.92;;
25758;SDS011;13604;52.496;13.456;2024-03-07T02:22:12;170.65;;;50.30;;
25758;SDS011;13604;52.496;13.456;2024-03-07T02:24:38;156.00;;;50.00;;
25758;SDS011;13604;52.496;13.456;2024-03-07T02:27:03;157.15;;;49.65;;
25758;SDS011;13604;52.496;13.456;2024-03-07T02:29:29;162.15;;;50.33;;
25758;SDS011;13604;52.496;13.456;2024-03-07T02:31:55;162.82;;;51.38;;
25758;SDS011;13604;52.496;13.456;2024-03-07T02:34:21;172.98;;;51.92;;
25758;SDS011;13604;52.496;13.456;2024-03-07T02:36:47;167.35;;;50.83;;
25758;SDS011;13604;52.496;13.456;2024-03-07T02:39:12;191.07;;;52.65;;
25758;SDS011;13604;52.496;13.456;2024-03-07T02:41:38;165.98;;;51.83;;
25758;SDS011;13604;52.496;13.456;2024-03-07T02:44:03;194.27;;;53.83;;
25758;SDS011;13604;52.496;13.456;2024-03-07T02:46:29;169.75;;;52.15;;
25758;SDS011;13604;52.496;13.456;2024-03-07T02:48:54;169.65;;;52.85;;
25758;SDS011;13604;52.496;13.456;2024-03-07T02:51:19;174.70;;;53.58;;
25758;SDS011;13604;52.496;13.456;2024-03-07T02:53:45;165.02;;;51.45;;
25758;SDS011;13604;52.496;13.456;2024-03-07T02:56:10;172.38;;;52.58;;
25758;SDS011;13604;52.496;13.456;2024-03-07T02:58:36;192.30;;;56.17;;
25758;SDS011;13604;52.496;13.456;2024-03-07T03:01:01;188.65;;;55.28;;
25758;SDS011;13604;52.496;13.456;2024-03-07T03:03:30;186.70;;;52.90;;
25758;SDS011;13604;52.496;13.456;2024-03-07T03:05:58;180.70;;;53.35;;
25758;SDS011;13604;52.496;13.456;2024-03-07T03:08:24;171.70;;;54.10;;
25758;SDS011;13604;52.496;13.456;2024-03-07T03:10:50;174.90;;;55.30;;
25758;SDS011;13604;52.496;13.456;2024-03-07T03:13:18;174.07;;;52.60;;
25758;SDS011;13604;52.496;13.456;2024-03-07T03:15:43;169.75;;;53.65;;
25758;SDS011;13604;52.496;13.456;2024-03-07T03:18:09;184.27;;;56.22;;
25758;SDS011;13604;52.496;13.456;2024-03-07T03:20:35;194.73;;;57.33;;
25758;SDS011;13604;52.496;13.456;2024-03-07T03:23:03;170.77;;;56.45;;
25758;SDS011;13604;52.496;13.456;2024-03-07T03:25:38;178.50;;;57.15;;
25758;SDS011;13604;52.496;13.456;2024-03-07T03:28:04;192.48;;;57.42;;
25758;SDS011;13604;52.496;13.456;2024-03-07T03:30:30;185.25;;;57.53;;
25758;SDS011;13604;52.496;13.456;2024-03-07T03:32:55;190.73;;;56.90;;
25758;SDS011;13604;52.496;13.456;2024-03-07T03:35:21;191.30;;;56.17;;
25758;SDS011;13604;52.496;13.456;2024-03-07T03:37:46;176.90;;;53.85;;
25758;SDS011;13604;52.496;13.456;2024-03-07T03:40:11;173.52;;;55.53;;
25758;SDS011;13604;52.496;13.456;2024-03-07T03:42:40;164.88;;;52.90;;
25758;SDS011;13604;52.496;13.456;2024-03-07T03:45:06;158.30;;;53.95;;
25758;SDS011;13604;52.496;13.456;2024-03-07T03:47:33;157.15;;;53.80;;
25758;SDS011;13604;52.496;13.456;2024-03-07T03:50:00;160.85;;;52.83;;
25758;SDS011;13604;52.496;13.456;2024-03-07T03:52:27;151.93;;;51.28;;
25758;SDS011;13604;52.496;13.456;2024-03-07T03:54:54;142.85;;;51.22;;
25758;SDS011;13604;52.496;13.456;2024-03-07T03:57:19;141.48;;;50.25;;
25758;SDS011;13604;52.496;13.456;2024-03-07T03:59:45;122.88;;;49.25;;
25758;SDS011;13604;52.496;13.456;2024-03-07T04:02:11;123.97;;;47.67;;
25758;SDS011;13604;52.496;13.456;2024-03-07T04:04:42;123.43;;;48.20;;
25758;SDS011;13604;52.496;13.456;2024-03-07T04:07:07;136.60;;;49.75;;
25758;SDS011;13604;52.496;13.456;2024-03-07T04:09:33;133.35;;;50.65;;
25758;SDS011;13604;52.496;13.456;2024-03-07T04:11:58;124.28;;;48.83;;
25758;SDS011;13604;52.496;13.456;2024-03-07T04:14:24;128.13;;;47.13;;
25758;SDS011;13604;52.496;13.456;2024-03-07T04:16:49;119.82;;;46.13;;
25758;SDS011;13604;52.496;13.456;2024-03-07T04:19:15;122.47;;;49.00;;
25758;SDS011;13604;52.496;13.456;2024-03-07T04:21:40;125.93;;;48.95;;
25758;SDS011;13604;52.496;13.456;2024-03-07T04:24:06;122.85;;;48.47;;
25758;SDS011;13604;52.496;13.456;2024-03-07T04:26:31;125.68;;;48.85;;
25758;SDS011;13604;52.496;13.456;2024-03-07T04:28:57;120.45;;;47.33;;
25758;SDS011;13604;52.496;13.456;2024-03-07T04:31:23;124.28;;;47.65;;
25758;SDS011;13604;52.496;13.456;2024-03-07T04:33:48;120.20;;;49.47;;
25758;SDS011;13604;52.496;13.456;2024-03-07T04:36:14;130.00;;;49.28;;
25758;SDS011;13604;52.496;13.456;2024-03-07T04:38:39;120.25;;;48.05;;
25758;SDS011;13604;52.496;13.456;2024-03-07T04:41:10;123.68;;;48.50;;
25758;SDS011;13604;52.496;13.456;2024-03-07T04:43:36;128.25;;;47.22;;
25758;SDS011;13604;52.496;13.456;2024-03-07T04:46:01;127.40;;;49.25;;
25758;SDS011;13604;52.496;13.456;2024-03-07T04:48:26;136.32;;;51.38;;
25758;SDS011;13604;52.496;13.456;2024-03-07T04:50:52;117.63;;;47.33;;
25758;SDS011;13604;52.496;13.456;2024-03-07T04:53:17;120.72;;;47.92;;
25758;SDS011;13604;52.496;13.456;2024-03-07T04:55:42;122.63;;;47.30;;
25758;SDS011;13604;52.496;13.456;2024-03-07T04:58:07;124.10;;;49.42;;
25758;SDS011;13604;52.496;13.456;2024-03-07T05:00:33;120.50;;;47.78;;
25758;SDS011;13604;52.496;13.456;2024-03-07T05:02:58;112.85;;;46.63;;
25758;SDS011;13604;52.496;13.456;2024-03-07T05:05:23;117.32;;;45.67;;
25758;SDS011;13604;52.496;13.456;2024-03-07T05:07:53;109.07;;;45.13;;
25758;SDS011;13604;52.496;13.456;2024-03-07T05:10:20;112.32;;;46.55;;
25758;SDS011;13604;52.496;13.456;2024-03-07T05:12:46;111.45;;;46.08;;
25758;SDS011;13604;52.496;13.456;2024-03-07T05:15:11;113.80;;;46.05;;
25758;SDS011;13604;52.496;13.456;2024-03-07T05:17:36;125.15;;;46.72;;
25758;SDS011;13604;52.496;13.456;2024-03-07T05:20:04;105.72;;;44.15;;
25758;SDS011;13604;52.496;13.456;2024-03-07T05:22:38;102.78;;;43.72;;
25758;SDS011;13604;52.496;13.456;2024-03-07T05:25:15;111.32;;;45.92;;
25758;SDS011;13604;52.496;13.456;2024-03-07T05:27:41;128.90;;;50.72;;
25758;SDS011;13604;52.496;13.456;2024-03-07T05:30:07;127.25;;;48.60;;
25758;SDS011;13604;52.496;13.456;2024-03-07T05:32:34;127.88;;;49.95;;
25758;SDS011;13604;52.496;13.456;2024-03-07T05:35:00;132.60;;;50.58;;
25758;SDS011;13604;52.496;13.456;2024-03-07T05:37:25;130.45;;;50.15;;
25758;SDS011;13604;52.496;13.456;2024-03-07T05:39:51;117.75;;;48.53;;
25758;SDS011;13604;52.496;13.456;2024-03-07T05:42:17;120.90;;;48.50;;
25758;SDS011;13604;52.496;13.456;2024-03-07T05:44:42;128.93;;;49.70;;
25758;SDS011;13604;52.496;13.456;2024-03-07T05:47:08;124.28;;;49.03;;
25758;SDS011;13604;52.496;13.456;2024-03-07T05:49:34;118.75;;;48.42;;
25758;SDS011;13604;52.496;13.456;2024-03-07T05:51:59;117.80;;;48.30;;
25758;SDS011;13604;52.496;13.456;2024-03-07T05:54:25;121.50;;;46.47;;
25758;SDS011;13604;52.496;13.456;2024-03-07T05:56:50;116.03;;;45.05;;
25758;SDS011;13604;52.496;13.456;2024-03-07T05:59:16;112.90;;;45.65;;
25758;SDS011;13604;52.496;13.456;2024-03-07T06:01:42;107.22;;;44.88;;
25758;SDS011;13604;52.496;13.456;2024-03-07T06:04:07;107.50;;;41.90;;
25758;SDS011;13604;52.496;13.456;2024-03-07T06:06:35;101.00;;;42.00;;
25758;SDS011;13604;52.496;13.456;2024-03-07T06:09:03;92.65;;;39.20;;
25758;SDS011;13604;52.496;13.456;2024-03-07T06:11:36;101.63;;;42.15;;
25758;SDS011;13604;52.496;13.456;2024-03-07T06:14:02;93.30;;;39.40;;
25758;SDS011;13604;52.496;13.456;2024-03-07T06:16:31;95.20;;;40.90;;
25758;SDS011;13604;52.496;13.456;2024-03-07T06:19:02;92.95;;;39.72;;
25758;SDS011;13604;52.496;13.456;2024-03-07T06:21:28;83.22;;;38.58;;
25758;SDS011;13604;52.496;13.456;2024-03-07T06:23:55;91.38;;;38.33;;
25758;SDS011;13604;52.496;13.456;2024-03-07T06:26:25;84.38;;;36.60;;
25758;SDS011;13604;52.496;13.456;2024-03-07T06:29:02;84.40;;;36.75;;
25758;SDS011;13604;52.496;13.456;2024-03-07T06:31:30;83.45;;;35.08;;
25758;SDS011;13604;52.496;13.456;2024-03-07T06:33:55;78.72;;;34.28;;
25758;SDS011;13604;52.496;13.456;2024-03-07T06:36:21;75.70;;;33.15;;
25758;SDS011;13604;52.496;13.456;2024-03-07T06:38:47;68.32;;;31.38;;
25758;SDS011;13604;52.496;13.456;2024-03-07T06:41:12;62.33;;;30.08;;
25758;SDS011;13604;52.496;13.456;2024-03-07T06:43:38;63.70;;;28.83;;
25758;SDS011;13604;52.496;13.456;2024-03-07T06:46:04;56.65;;;26.23;;
25758;SDS011;13604;52.496;13.456;2024-03-07T06:48:29;58.47;;;27.52;;
25758;SDS011;13604;52.496;13.456;2024-03-07T06:50:54;69.45;;;26.63;;
25758;SDS011;13604;52.496;13.456;2024-03-07T06:53:20;54.30;;;26.48;;
25758;SDS011;13604;52.496;13.456;2024-03-07T06:55:45;53.33;;;24.42;;
25758;SDS011;13604;52.496;13.456;2024-03-07T06:58:10;53.42;;;24.35;;
25758;SDS011;13604;52.496;13.456;2024-03-07T07:00:36;48.80;;;24.13;;
25758;SDS011;13604;52.496;13.456;2024-03-07T07:03:01;46.42;;;22.35;;
25758;SDS011;13604;52.496;13.456;2024-03-07T07:05:29;44.28;;;22.23;;
25758;SDS011;13604;52.496;13.456;2024-03-07T07:07:55;44.40;;;22.67;;
25758;SDS011;13604;52.496;13.456;2024-03-07T07:10:20;38.17;;;20.38;;
25758;SDS011;13604;52.496;13.456;2024-03-07T07:12:48;46.30;;;21.65;;
25758;SDS011;13604;52.496;13.456;2024-03-07T07:15:15;37.25;;;20.83;;
25758;SDS011;13604;52.496;13.456;2024-03-07T07:17:42;45.40;;;20.70;;
25758;SDS011;13604;52.496;13.456;2024-03-07T07:20:10;41.97;;;20.33;;
25758;SDS011;13604;52.496;13.456;2024-03-07T07:22:39;40.13;;;21.08;;
25758;SDS011;13604;52.496;13.456;2024-03-07T07:25:05;46.95;;;19.35;;
25758;SDS011;13604;52.496;13.456;2024-03-07T07:27:33;43.90;;;19.63;;
25758;SDS011;13604;52.496;13.456;2024-03-07T07:29:59;40.45;;;20.77;;
25758;SDS011;13604;52.496;13.456;2024-03-07T07:32:24;37.05;;;19.10;;
25758;SDS011;13604;52.496;13.456;2024-03-07T07:34:49;36.30;;;19.08;;
25758;SDS011;13604;52.496;13.456;2024-03-07T07:37:15;40.92;;;19.15;;
25758;SDS011;13604;52.496;13.456;2024-03-07T07:39:40;40.30;;;20.08;;
25758;SDS011;13604;52.496;13.456;2024-03-07T07:42:05;43.92;;;18.92;;
25758;SDS011;13604;52.496;13.456;2024-03-07T07:44:33;36.30;;;18.23;;
25758;SDS011;13604;52.496;13.456;2024-03-07T07:46:58;33.97;;;18.20;;
25758;SDS011;13604;52.496;13.456;2024-03-07T07:49:24;36.80;;;19.55;;
25758;SDS011;13604;52.496;13.456;2024-03-07T07:51:49;35.13;;;18.25;;
25758;SDS011;13604;52.496;13.456;2024-03-07T07:54:15;36.88;;;18.85;;
25758;SDS011;13604;52.496;13.456;2024-03-07T07:56:40;35.15;;;18.20;;
25758;SDS011;13604;52.496;13.456;2024-03-07T07:59:06;31.23;;;17.67;;
25758;SDS011;13604;52.496;13.456;2024-03-07T08:01:34;46.60;;;19.13;;
25758;SDS011;13604;52.496;13.456;2024-03-07T08:03:59;34.30;;;17.88;;
25758;SDS011;13604;52.496;13.456;2024-03-07T08:06:25;35.55;;;18.35;;
25758;SDS011;13604;52.496;13.456;2024-03-07T08:08:50;32.90;;;17.92;;
25758;SDS011;13604;52.496;13.456;2024-03-07T08:11:16;28.58;;;17.30;;
25758;SDS011;13604;52.496;13.456;2024-03-07T08:13:42;28.90;;;17.08;;
25758;SDS011;13604;52.496;13.456;2024-03-07T08:16:07;31.15;;;16.52;;
25758;SDS011;13604;52.496;13.456;2024-03-07T08:18:36;27.75;;;17.27;;
25758;SDS011;13604;52.496;13.456;2024-03-07T08:21:01;28.20;;;17.27;;
25758;SDS011;13604;52.496;13.456;2024-03-07T08:23:26;32.08;;;17.13;;
25758;SDS011;13604;52.496;13.456;2024-03-07T08:25:54;30.13;;;18.23;;
25758;SDS011;13604;52.496;13.456;2024-03-07T08:28:19;31.23;;;16.77;;
25758;SDS011;13604;52.496;13.456;2024-03-07T08:30:45;29.70;;;16.65;;
25758;SDS011;13604;52.496;13.456;2024-03-07T08:33:10;25.88;;;15.50;;
25758;SDS011;13604;52.496;13.456;2024-03-07T08:35:37;29.33;;;16.13;;
25758;SDS011;13604;52.496;13.456;2024-03-07T08:38:02;35.05;;;17.42;;
25758;SDS011;13604;52.496;13.456;2024-03-07T08:40:29;30.90;;;17.20;;
25758;SDS011;13604;52.496;13.456;2024-03-07T08:42:59;26.85;;;15.32;;
25758;SDS011;13604;52.496;13.456;2024-03-07T08:45:25;31.95;;;15.70;;
25758;SDS011;13604;52.496;13.456;2024-03-07T08:47:55;27.08;;;16.30;;
25758;SDS011;13604;52.496;13.456;2024-03-07T08:50:21;24.88;;;13.73;;
25758;SDS011;13604;52.496;13.456;2024-03-07T08:52:47;26.95;;;15.15;;
25758;SDS011;13604;52.496;13.456;2024-03-07T08:55:14;29.25;;;14.93;;
25758;SDS011;13604;52.496;13.456;2024-03-07T08:57:41;29.13;;;15.55;;
25758;SDS011;13604;52.496;13.456;2024-03-07T09:00:08;26.08;;;15.30;;
25758;SDS011;13604;52.496;13.456;2024-03-07T09:02:36;30.33;;;14.88;;
25758;SDS011;13604;52.496;13.456;2024-03-07T09:05:03;25.02;;;14.27;;
25758;SDS011;13604;52.496;13.456;2024-03-07T09:07:29;24.60;;;15.60;;
25758;SDS011;13604;52.496;13.456;2024-03-07T09:09:54;23.80;;;13.55;;
25758;SDS011;13604;52.496;13.456;2024-03-07T09:12:20;20.50;;;13.52;;
25758;SDS011;13604;52.496;13.456;2024-03-07T09:14:45;22.70;;;13.50;;
25758;SDS011;13604;52.496;13.456;2024-03-07T09:17:10;23.85;;;14.25;;
25758;SDS011;13604;52.496;13.456;2024-03-07T09:19:38;23.88;;;14.20;;
25758;SDS011;13604;52.496;13.456;2024-03-07T09:22:03;19.83;;;12.90;;
25758;SDS011;13604;52.496;13.456;2024-03-07T09:24:30;24.48;;;14.02;;
25758;SDS011;13604;52.496;13.456;2024-03-07T09:26:56;22.33;;;13.48;;
25758;SDS011;13604;52.496;13.456;2024-03-07T09:29:22;21.23;;;12.68;;
25758;SDS011;13604;52.496;13.456;2024-03-07T09:31:50;18.50;;;12.30;;
25758;SDS011;13604;52.496;13.456;2024-03-07T09:34:19;19.38;;;12.48;;
25758;SDS011;13604;52.496;13.456;2024-03-07T09:36:48;19.63;;;11.82;;
25758;SDS011;13604;52.496;13.456;2024-03-07T09:39:14;16.13;;;11.40;;
25758;SDS011;13604;52.496;13.456;2024-03-07T09:41:40;21.63;;;12.23;;
25758;SDS011;13604;52.496;13.456;2024-03-07T09:44:05;19.92;;;12.93;;
25758;SDS011;13604;52.496;13.456;2024-03-07T09:46:33;25.05;;;12.32;;
25758;SDS011;13604;52.496;13.456;2024-03-07T09:48:59;20.83;;;10.88;;
25758;SDS011;13604;52.496;13.456;2024-03-07T09:51:25;18.50;;;10.80;;
25758;SDS011;13604;52.496;13.456;2024-03-07T09:53:52;19.90;;;12.30;;
25758;SDS011;13604;52.496;13.456;2024-03-07T09:56:21;19.77;;;10.98;;
25758;SDS011;13604;52.496;13.456;2024-03-07T09:58:48;18.75;;;11.10;;
25758;SDS011;13604;52.496;13.456;2024-03-07T10:01:14;20.13;;;11.25;;
25758;SDS011;13604;52.496;13.456;2024-03-07T10:03:41;20.73;;;11.27;;
25758;SDS011;13604;52.496;13.456;2024-03-07T10:06:09;21.63;;;11.25;;
25758;SDS011;13604;52.496;13.456;2024-03-07T10:08:35;19.20;;;12.00;;
25758;SDS011;13604;52.496;13.456;2024-03-07T10:11:00;18.88;;;11.68;;
25758;SDS011;13604;52.496;13.456;2024-03-07T10:13:26;19.10;;;10.77;;
25758;SDS011;13604;52.496;13.456;2024-03-07T10:15:51;16.92;;;11.23;;
25758;SDS011;13604;52.496;13.456;2024-03-07T10:18:18;16.85;;;11.32;;
25758;SDS011;13604;52.496;13.456;2024-03-07T10:20:47;14.70;;;10.70;;
25758;SDS011;13604;52.496;13.456;2024-03-07T10:23:12;20.33;;;10.70;;
25758;SDS011;13604;52.496;13.456;2024-03-07T10:25:46;14.93;;;9.07;;
25758;SDS011;13604;52.496;13.456;2024-03-07T10:28:11;18.13;;;10.13;;
25758;SDS011;13604;52.496;13.456;2024-03-07T10:30:43;20.17;;;11.63;;
25758;SDS011;13604;52.496;13.456;2024-03-07T10:33:13;16.08;;;10.57;;
25758;SDS011;13604;52.496;13.456;2024-03-07T10:35:38;17.70;;;11.48;;
25758;SDS011;13604;52.496;13.456;2024-03-07T10:38:04;24.33;;;11.55;;
25758;SDS011;13604;52.496;13.456;2024-03-07T10:40:31;18.15;;;10.48;;
25758;SDS011;13604;52.496;13.456;2024-03-07T10:42:57;17.95;;;10.65;;
25758;SDS011;13604;52.496;13.456;2024-03-07T10:45:23;17.70;;;10.90;;
25758;SDS011;13604;52.496;13.456;2024-03-07T10:47:55;18.60;;;11.13;;
25758;SDS011;13604;52.496;13.456;2024-03-07T10:53:24;24.63;;;11.95;;
25758;SDS011;13604;52.496;13.456;2024-03-07T10:56:09;16.65;;;11.00;;
25758;SDS011;13604;52.496;13.456;2024-03-07T10:58:58;22.55;;;11.38;;
25758;SDS011;13604;52.496;13.456;2024-03-07T11:01:29;19.77;;;12.00;;
25758;SDS011;13604;52.496;13.456;2024-03-07T11:03:56;22.50;;;11.70;;
25758;SDS011;13604;52.496;13.456;2024-03-07T11:06:23;21.27;;;11.73;;
25758;SDS011;13604;52.496;13.456;2024-03-07T11:08:49;18.83;;;11.60;;
25758;SDS011;13604;52.496;13.456;2024-03-07T11:11:16;18.60;;;12.10;;
25758;SDS011;13604;52.496;13.456;2024-03-07T11:13:42;17.17;;;11.40;;
25758;SDS011;13604;52.496;13.456;2024-03-07T11:16:09;19.65;;;11.50;;
25758;SDS011;13604;52.496;13.456;2024-03-07T11:18:35;17.13;;;10.60;;
25758;SDS011;13604;52.496;13.456;2024-03-07T11:21:00;16.02;;;11.43;;
25758;SDS011;13604;52.496;13.456;2024-03-07T11:23:29;14.80;;;10.48;;
25758;SDS011;13604;52.496;13.456;2024-03-07T11:26:10;20.48;;;10.40;;
25758;SDS011;13604;52.496;13.456;2024-03-07T11:28:37;18.63;;;11.55;;
25758;SDS011;13604;52.496;13.456;2024-03-07T11:31:12;17.60;;;11.38;;
25758;SDS011;13604;52.496;13.456;2024-03-07T11:33:38;17.80;;;10.93;;
25758;SDS011;13604;52.496;13.456;2024-03-07T11:36:05;18.30;;;11.23;;
25758;SDS011;13604;52.496;13.456;2024-03-07T11:38:32;13.90;;;10.18;;
25758;SDS011;13604;52.496;13.456;2024-03-07T11:40:59;17.15;;;10.52;;
25758;SDS011;13604;52.496;13.456;2024-03-07T11:43:27;15.45;;;10.98;;
25758;SDS011;13604;52.496;13.456;2024-03-07T11:45:53;17.67;;;10.98;;
25758;SDS011;13604;52.496;13.456;2024-03-07T11:48:18;17.40;;;11.35;;
25758;SDS011;13604;52.496;13.456;2024-03-07T11:50:45;17.00;;;12.07;;
25758;SDS011;13604;52.496;13.456;2024-03-07T11:53:10;20.63;;;11.45;;
25758;SDS011;13604;52.496;13.456;2024-03-07T11:55:36;21.73;;;11.13;;
25758;SDS011;13604;52.496;13.456;2024-03-07T11:58:11;19.88;;;11.25;;
25758;SDS011;13604;52.496;13.456;2024-03-07T12:00:38;17.17;;;11.50;;
25758;SDS011;13604;52.496;13.456;2024-03-07T12:03:09;15.25;;;11.50;;
25758;SDS011;13604;52.496;13.456;2024-03-07T12:05:38;16.77;;;12.13;;
25758;SDS011;13604;52.496;13.456;2024-03-07T12:08:04;16.70;;;11.63;;
25758;SDS011;13604;52.496;13.456;2024-03-07T12:10:30;16.40;;;10.77;;
25758;SDS011;13604;52.496;13.456;2024-03-07T12:12:56;14.93;;;10.38;;
25758;SDS011;13604;52.496;13.456;2024-03-07T12:15:21;18.83;;;11.07;;
25758;SDS011;13604;52.496;13.456;2024-03-07T12:17:48;15.82;;;11.05;;
25758;SDS011;13604;52.496;13.456;2024-03-07T12:20:15;16.83;;;11.15;;
25758;SDS011;13604;52.496;13.456;2024-03-07T12:22:54;17.33;;;12.43;;
25758;SDS011;13604;52.496;13.456;2024-03-07T12:25:21;17.25;;;12.07;;
25758;SDS011;13604;52.496;13.456;2024-03-07T12:28:02;15.77;;;10.38;;
25758;SDS011;13604;52.496;13.456;2024-03-07T12:30:35;14.77;;;11.23;;
25758;SDS011;13604;52.496;13.456;2024-03-07T12:33:03;18.67;;;12.38;;
25758;SDS011;13604;52.496;13.456;2024-03-07T12:35:32;17.20;;;11.38;;
25758;SDS011;13604;52.496;13.456;2024-03-07T12:37:58;16.75;;;13.07;;
25758;SDS011;13604;52.496;13.456;2024-03-07T12:40:24;14.93;;;11.88;;
25758;SDS011;13604;52.496;13.456;2024-03-07T12:42:53;17.05;;;12.57;;
25758;SDS011;13604;52.496;13.456;2024-03-07T12:45:19;19.48;;;12.88;;
25758;SDS011;13604;52.496;13.456;2024-03-07T12:47:47;18.10;;;13.15;;
25758;SDS011;13604;52.496;13.456;2024-03-07T12:50:18;19.90;;;13.33;;
25758;SDS011;13604;52.496;13.456;2024-03-07T12:52:45;18.05;;;13.27;;
25758;SDS011;13604;52.496;13.456;2024-03-07T12:55:11;19.15;;;12.90;;
25758;SDS011;13604;52.496;13.456;2024-03-07T12:57:38;17.58;;;14.15;;
25758;SDS011;13604;52.496;13.456;2024-03-07T13:02:34;15.52;;;12.27;;
25758;SDS011;13604;52.496;13.456;2024-03-07T13:04:59;20.38;;;14.90;;
25758;SDS011;13604;52.496;13.456;2024-03-07T13:07:24;19.85;;;14.35;;
25758;SDS011;13604;52.496;13.456;2024-03-07T13:09:50;24.05;;;15.00;;
25758;SDS011;13604;52.496;13.456;2024-03-07T13:12:15;20.33;;;14.63;;
25758;SDS011;13604;52.496;13.456;2024-03-07T13:14:40;19.95;;;14.65;;
25758;SDS011;13604;52.496;13.456;2024-03-07T13:17:08;19.02;;;13.93;;
25758;SDS011;13604;52.496;13.456;2024-03-07T13:19:33;20.33;;;12.80;;
25758;SDS011;13604;52.496;13.456;2024-03-07T13:21:58;17.60;;;12.95;;
25758;SDS011;13604;52.496;13.456;2024-03-07T13:24:25;16.55;;;11.85;;
25758;SDS011;13604;52.496;13.456;2024-03-07T13:26:52;17.60;;;12.02;;
25758;SDS011;13604;52.496;13.456;2024-03-07T13:29:18;13.88;;;10.82;;
25758;SDS011;13604;52.496;13.456;2024-03-07T13:31:49;16.77;;;11.52;;
25758;SDS011;13604;52.496;13.456;2024-03-07T13:34:16;14.98;;;11.68;;
25758;SDS011;13604;52.496;13.456;2024-03-07T13:36:42;18.25;;;12.20;;
25758;SDS011;13604;52.496;13.456;2024-03-07T13:39:08;18.10;;;12.38;;
25758;SDS011;13604;52.496;13.456;2024-03-07T13:41:36;14.82;;;11.70;;
25758;SDS011;13604;52.496;13.456;2024-03-07T13:44:02;17.85;;;12.13;;
25758;SDS011;13604;52.496;13.456;2024-03-07T13:46:28;15.35;;;11.40;;
25758;SDS011;13604;52.496;13.456;2024-03-07T13:48:54;15.18;;;12.15;;
25758;SDS011;13604;52.496;13.456;2024-03-07T13:51:19;17.65;;;12.45;;
25758;SDS011;13604;52.496;13.456;2024-03-07T13:53:45;18.95;;;13.52;;
25758;SDS011;13604;52.496;13.456;2024-03-07T13:56:33;13.98;;;11.70;;
25758;SDS011;13604;52.496;13.456;2024-03-07T13:59:15;15.43;;;12.15;;
25758;SDS011;13604;52.496;13.456;2024-03-07T14:23:36;19.02;;;13.50;;
25758;SDS011;13604;52.496;13.456;2024-03-07T14:31:52;18.98;;;13.60;;
25758;SDS011;13604;52.496;13.456;2024-03-07T14:34:33;18.45;;;12.85;;